Chickasaw, Iowa
Current Conditions -  °F | °C
As of 5:55 PM on Wednesday 28 Jan 2015 (Local Time) from KCCY Reporting Station
Overcast Overcast  
Wind Chill: 24°   Ceiling: 1400
Heat Index: 34°   Visibility: 10mi
Dew Point: 32°   Wind: 15mph
Humidity: 93%   Direction: 140°SE
Pressure: 29.78"   Gusts: NA
Location:  43.0386°N, 92.4951°W
Report Text: KCCY 282355Z AUTO 14013KT 10SM OVC014 01/00 A2978 RMK AO2
Loading
Personal Weather Stations






























Interactive Weather Map New forecast layout! Learn more

10-Day Weather Forecast

Advertisements
Track Severe Weather on mobile